sensor_id;sensor_type;location;lat;lon;timestamp;pressure;altitude;pressure_sealevel;temperature;humidity
30935;BME280;51033;42.648;23.292;2022-12-07T00:00:43;93807.06;;;7.27;57.77
30935;BME280;51033;42.648;23.292;2022-12-07T00:03:08;93756.38;;;6.93;57.43
30935;BME280;51033;42.648;23.292;2022-12-07T00:05:33;93819.00;;;7.24;57.87
30935;BME280;51033;42.648;23.292;2022-12-07T00:07:59;93755.41;;;6.89;57.88
30935;BME280;51033;42.648;23.292;2022-12-07T00:10:24;93824.34;;;7.38;57.35
30935;BME280;51033;42.648;23.292;2022-12-07T00:12:49;93791.41;;;7.30;57.25
30935;BME280;51033;42.648;23.292;2022-12-07T00:15:15;93804.25;;;7.37;57.40
30935;BME280;51033;42.648;23.292;2022-12-07T00:17:41;93776.50;;;7.21;57.48
30935;BME280;51033;42.648;23.292;2022-12-07T00:20:06;93813.66;;;7.43;57.06
30935;BME280;51033;42.648;23.292;2022-12-07T00:22:32;93792.59;;;7.38;57.05
30935;BME280;51033;42.648;23.292;2022-12-07T00:24:57;93759.13;;;7.15;56.99
30935;BME280;51033;42.648;23.292;2022-12-07T00:27:23;93806.81;;;7.42;57.09
30935;BME280;51033;42.648;23.292;2022-12-07T00:29:48;93782.84;;;7.20;57.24
30935;BME280;51033;42.648;23.292;2022-12-07T00:32:13;93819.25;;;7.42;57.24
30935;BME280;51033;42.648;23.292;2022-12-07T00:34:39;93799.41;;;7.25;57.23
30935;BME280;51033;42.648;23.292;2022-12-07T00:37:04;93820.03;;;7.42;57.31
30935;BME280;51033;42.648;23.292;2022-12-07T00:39:29;93816.31;;;7.43;57.17
30935;BME280;51033;42.648;23.292;2022-12-07T00:41:55;93796.00;;;7.39;57.02
30935;BME280;51033;42.648;23.292;2022-12-07T00:44:20;93801.00;;;7.40;57.28
30935;BME280;51033;42.648;23.292;2022-12-07T00:46:46;93796.09;;;7.20;57.70
30935;BME280;51033;42.648;23.292;2022-12-07T00:49:11;93810.59;;;7.36;57.95
30935;BME280;51033;42.648;23.292;2022-12-07T00:51:37;93770.31;;;7.12;57.65
30935;BME280;51033;42.648;23.292;2022-12-07T00:54:02;93809.03;;;7.35;57.96
30935;BME280;51033;42.648;23.292;2022-12-07T00:56:28;93818.03;;;7.34;57.98
30935;BME280;51033;42.648;23.292;2022-12-07T00:58:58;93793.44;;;7.20;58.29
30935;BME280;51033;42.648;23.292;2022-12-07T01:01:26;93750.97;;;6.84;58.27
30935;BME280;51033;42.648;23.292;2022-12-07T01:03:51;93814.94;;;7.32;58.21
30935;BME280;51033;42.648;23.292;2022-12-07T01:06:19;93804.34;;;7.32;58.23
30935;BME280;51033;42.648;23.292;2022-12-07T01:08:45;93802.75;;;7.31;58.18
30935;BME280;51033;42.648;23.292;2022-12-07T01:11:13;93807.28;;;7.30;58.33
30935;BME280;51033;42.648;23.292;2022-12-07T01:13:40;93811.22;;;7.33;58.25
30935;BME280;51033;42.648;23.292;2022-12-07T01:16:06;93802.75;;;7.31;58.50
30935;BME280;51033;42.648;23.292;2022-12-07T01:18:35;93777.09;;;7.18;58.41
30935;BME280;51033;42.648;23.292;2022-12-07T01:21:10;93806.38;;;7.35;58.35
30935;BME280;51033;42.648;23.292;2022-12-07T01:23:37;93787.97;;;7.30;58.30
30935;BME280;51033;42.648;23.292;2022-12-07T01:26:05;93792.28;;;7.26;58.55
30935;BME280;51033;42.648;23.292;2022-12-07T01:28:31;93761.41;;;7.08;58.62
30935;BME280;51033;42.648;23.292;2022-12-07T01:31:12;93776.22;;;7.22;58.30
30935;BME280;51033;42.648;23.292;2022-12-07T01:33:40;93783.75;;;7.29;58.19
30935;BME280;51033;42.648;23.292;2022-12-07T01:38:32;93788.06;;;7.39;57.74
30935;BME280;51033;42.648;23.292;2022-12-07T01:40:59;93759.66;;;7.17;57.64
30935;BME280;51033;42.648;23.292;2022-12-07T01:43:27;93789.94;;;7.38;57.54
30935;BME280;51033;42.648;23.292;2022-12-07T01:45:53;93790.41;;;7.40;57.58
30935;BME280;51033;42.648;23.292;2022-12-07T01:48:27;93787.88;;;7.35;57.63
30935;BME280;51033;42.648;23.292;2022-12-07T01:50:55;93787.88;;;7.35;57.54
30935;BME280;51033;42.648;23.292;2022-12-07T01:53:24;93770.81;;;7.27;57.30
30935;BME280;51033;42.648;23.292;2022-12-07T01:55:52;93780.63;;;7.41;57.49
30935;BME280;51033;42.648;23.292;2022-12-07T01:58:18;93785.13;;;7.40;57.31
30935;BME280;51033;42.648;23.292;2022-12-07T02:00:45;93757.38;;;7.24;57.43
30935;BME280;51033;42.648;23.292;2022-12-07T02:03:18;93767.13;;;7.42;57.20
30935;BME280;51033;42.648;23.292;2022-12-07T02:05:46;93755.56;;;7.38;57.42
30935;BME280;51033;42.648;23.292;2022-12-07T02:08:13;93757.00;;;7.44;57.37
30935;BME280;51033;42.648;23.292;2022-12-07T02:10:39;93768.47;;;7.26;57.73
30935;BME280;51033;42.648;23.292;2022-12-07T02:13:18;93773.06;;;7.34;57.67
30935;BME280;51033;42.648;23.292;2022-12-07T02:16:01;93774.53;;;7.26;57.66
30935;BME280;51033;42.648;23.292;2022-12-07T02:21:52;93777.28;;;7.35;57.44
30935;BME280;51033;42.648;23.292;2022-12-07T02:30:24;93729.06;;;7.11;57.46
30935;BME280;51033;42.648;23.292;2022-12-07T02:38:25;93759.66;;;7.30;57.47
30935;BME280;51033;42.648;23.292;2022-12-07T02:40:57;93759.28;;;7.23;57.55
30935;BME280;51033;42.648;23.292;2022-12-07T02:44:18;93765.22;;;7.15;57.59
30935;BME280;51033;42.648;23.292;2022-12-07T02:46:22;93743.78;;;7.03;57.26
30935;BME280;51033;42.648;23.292;2022-12-07T02:48:50;93768.47;;;7.12;57.01
30935;BME280;51033;42.648;23.292;2022-12-07T02:51:17;93736.50;;;6.95;57.31
30935;BME280;51033;42.648;23.292;2022-12-07T02:53:47;93729.84;;;6.98;57.00
30935;BME280;51033;42.648;23.292;2022-12-07T03:07:00;93728.09;;;7.07;56.63
30935;BME280;51033;42.648;23.292;2022-12-07T03:09:35;93733.28;;;7.12;56.90
30935;BME280;51033;42.648;23.292;2022-12-07T03:12:10;93701.63;;;6.93;56.80
30935;BME280;51033;42.648;23.292;2022-12-07T03:14:46;93705.25;;;6.97;56.22
30935;BME280;51033;42.648;23.292;2022-12-07T03:17:17;93723.19;;;7.00;56.19
30935;BME280;51033;42.648;23.292;2022-12-07T03:19:46;93687.13;;;6.77;56.19
30935;BME280;51033;42.648;23.292;2022-12-07T03:22:14;93736.03;;;7.07;56.05
30935;BME280;51033;42.648;23.292;2022-12-07T03:24:53;93718.78;;;6.96;55.88
30935;BME280;51033;42.648;23.292;2022-12-07T03:27:23;93708.47;;;6.80;55.80
30935;BME280;51033;42.648;23.292;2022-12-07T03:29:59;93739.44;;;6.94;56.01
30935;BME280;51033;42.648;23.292;2022-12-07T03:36:00;93715.31;;;6.68;56.56
30935;BME280;51033;42.648;23.292;2022-12-07T03:38:05;93740.50;;;6.93;56.59
30935;BME280;51033;42.648;23.292;2022-12-07T03:43:18;93723.75;;;6.70;57.10
30935;BME280;51033;42.648;23.292;2022-12-07T03:45:57;93706.88;;;6.66;57.19
30935;BME280;51033;42.648;23.292;2022-12-07T03:48:31;93712.78;;;6.76;57.13
30935;BME280;51033;42.648;23.292;2022-12-07T03:51:21;93710.22;;;6.71;57.13
30935;BME280;51033;42.648;23.292;2022-12-07T03:54:02;93736.88;;;6.89;57.38
30935;BME280;51033;42.648;23.292;2022-12-07T03:56:32;93699.44;;;6.68;57.07
30935;BME280;51033;42.648;23.292;2022-12-07T03:58:59;93727.88;;;6.90;56.97
30935;BME280;51033;42.648;23.292;2022-12-07T04:01:24;93704.38;;;6.74;57.17
30935;BME280;51033;42.648;23.292;2022-12-07T04:03:50;93699.88;;;6.75;57.11
30935;BME280;51033;42.648;23.292;2022-12-07T04:06:15;93724.53;;;6.84;56.95
30935;BME280;51033;42.648;23.292;2022-12-07T04:08:41;93681.41;;;6.56;57.01
30935;BME280;51033;42.648;23.292;2022-12-07T04:11:06;93705.72;;;6.72;57.04
30935;BME280;51033;42.648;23.292;2022-12-07T04:13:32;93706.50;;;6.72;56.76
30935;BME280;51033;42.648;23.292;2022-12-07T04:16:17;93715.31;;;6.81;56.82
30935;BME280;51033;42.648;23.292;2022-12-07T04:18:42;93718.75;;;6.82;56.76
30935;BME280;51033;42.648;23.292;2022-12-07T04:21:08;93705.91;;;6.75;56.93
30935;BME280;51033;42.648;23.292;2022-12-07T04:23:33;93730.00;;;6.74;56.99
30935;BME280;51033;42.648;23.292;2022-12-07T04:25:58;93723.34;;;6.76;57.13
30935;BME280;51033;42.648;23.292;2022-12-07T04:28:24;93709.22;;;6.67;56.99
30935;BME280;51033;42.648;23.292;2022-12-07T04:30:49;93727.06;;;6.75;56.79
30935;BME280;51033;42.648;23.292;2022-12-07T04:33:15;93673.69;;;6.27;56.77
30935;BME280;51033;42.648;23.292;2022-12-07T04:35:42;93722.44;;;6.67;56.73
30935;BME280;51033;42.648;23.292;2022-12-07T04:38:07;93723.91;;;6.60;56.94
30935;BME280;51033;42.648;23.292;2022-12-07T04:40:33;93702.94;;;6.50;56.71
30935;BME280;51033;42.648;23.292;2022-12-07T04:42:58;93724.09;;;6.63;56.69
30935;BME280;51033;42.648;23.292;2022-12-07T04:45:23;93707.44;;;6.49;56.54
30935;BME280;51033;42.648;23.292;2022-12-07T04:47:49;93743.06;;;6.65;56.70
30935;BME280;51033;42.648;23.292;2022-12-07T04:50:14;93728.41;;;6.59;56.63
30935;BME280;51033;42.648;23.292;2022-12-07T04:52:39;93743.66;;;6.62;56.41
30935;BME280;51033;42.648;23.292;2022-12-07T04:55:05;93731.53;;;6.61;56.39
30935;BME280;51033;42.648;23.292;2022-12-07T04:57:30;93723.13;;;6.59;56.63
30935;BME280;51033;42.648;23.292;2022-12-07T04:59:56;93729.75;;;6.57;56.81
30935;BME280;51033;42.648;23.292;2022-12-07T05:02:21;93729.38;;;6.63;56.61
30935;BME280;51033;42.648;23.292;2022-12-07T05:04:47;93720.53;;;6.40;56.53
30935;BME280;51033;42.648;23.292;2022-12-07T05:07:12;93734.34;;;6.51;56.59
30935;BME280;51033;42.648;23.292;2022-12-07T05:09:37;93713.47;;;6.36;56.70
30935;BME280;51033;42.648;23.292;2022-12-07T05:12:03;93746.00;;;6.50;56.72
30935;BME280;51033;42.648;23.292;2022-12-07T05:14:28;93727.50;;;6.31;57.23
30935;BME280;51033;42.648;23.292;2022-12-07T05:16:53;93726.91;;;6.21;58.46
30935;BME280;51033;42.648;23.292;2022-12-07T05:19:19;93747.88;;;6.31;58.67
30935;BME280;51033;42.648;23.292;2022-12-07T05:21:45;93744.56;;;6.39;58.96
30935;BME280;51033;42.648;23.292;2022-12-07T05:24:12;93714.19;;;6.23;59.07
30935;BME280;51033;42.648;23.292;2022-12-07T05:26:38;93738.72;;;6.42;59.17
30935;BME280;51033;42.648;23.292;2022-12-07T05:29:04;93694.56;;;6.10;59.16
30935;BME280;51033;42.648;23.292;2022-12-07T05:31:29;93745.56;;;6.43;59.29
30935;BME280;51033;42.648;23.292;2022-12-07T05:33:55;93699.31;;;6.27;59.14
30935;BME280;51033;42.648;23.292;2022-12-07T05:36:21;93719.34;;;6.47;58.80
30935;BME280;51033;42.648;23.292;2022-12-07T05:38:47;93711.56;;;6.55;58.45
30935;BME280;51033;42.648;23.292;2022-12-07T05:41:15;93722.72;;;6.66;58.41
30935;BME280;51033;42.648;23.292;2022-12-07T05:44:00;93725.84;;;6.54;58.10
30935;BME280;51033;42.648;23.292;2022-12-07T05:46:26;93672.44;;;6.25;58.26
30935;BME280;51033;42.648;23.292;2022-12-07T05:48:52;93718.41;;;6.56;58.13
30935;BME280;51033;42.648;23.292;2022-12-07T05:51:17;93702.94;;;6.50;58.05
30935;BME280;51033;42.648;23.292;2022-12-07T05:53:43;93699.59;;;6.44;57.65
30935;BME280;51033;42.648;23.292;2022-12-07T05:56:09;93714.50;;;6.54;57.94
30935;BME280;51033;42.648;23.292;2022-12-07T05:58:35;93713.69;;;6.53;57.75
30935;BME280;51033;42.648;23.292;2022-12-07T06:01:19;93691.16;;;6.42;57.76
30935;BME280;51033;42.648;23.292;2022-12-07T06:03:46;93720.94;;;6.61;57.64
30935;BME280;51033;42.648;23.292;2022-12-07T06:06:11;93699.50;;;6.49;57.70
30935;BME280;51033;42.648;23.292;2022-12-07T06:08:37;93726.25;;;6.61;57.81
30935;BME280;51033;42.648;23.292;2022-12-07T06:11:02;93701.16;;;6.45;58.04
30935;BME280;51033;42.648;23.292;2022-12-07T06:13:46;93711.75;;;6.59;58.16
30935;BME280;51033;42.648;23.292;2022-12-07T06:16:15;93707.03;;;6.56;58.17
30935;BME280;51033;42.648;23.292;2022-12-07T06:18:40;93664.44;;;6.30;58.21
30935;BME280;51033;42.648;23.292;2022-12-07T06:21:05;93728.00;;;6.66;58.53
30935;BME280;51033;42.648;23.292;2022-12-07T06:23:31;93710.94;;;6.45;58.88
30935;BME280;51033;42.648;23.292;2022-12-07T06:25:56;93744.09;;;6.69;59.16
30935;BME280;51033;42.648;23.292;2022-12-07T06:28:22;93740.28;;;6.75;59.05
30935;BME280;51033;42.648;23.292;2022-12-07T06:30:47;93724.47;;;6.57;59.51
30935;BME280;51033;42.648;23.292;2022-12-07T06:33:12;93738.22;;;6.72;59.59
30935;BME280;51033;42.648;23.292;2022-12-07T06:35:38;93729.22;;;6.73;59.49
30935;BME280;51033;42.648;23.292;2022-12-07T06:38:03;93737.63;;;6.75;59.58
30935;BME280;51033;42.648;23.292;2022-12-07T06:40:29;93739.41;;;6.80;59.60
30935;BME280;51033;42.648;23.292;2022-12-07T06:42:54;93724.13;;;6.77;59.49
30935;BME280;51033;42.648;23.292;2022-12-07T06:45:20;93750.31;;;6.92;59.32
30935;BME280;51033;42.648;23.292;2022-12-07T06:47:45;93743.75;;;6.90;59.68
30935;BME280;51033;42.648;23.292;2022-12-07T06:50:11;93730.41;;;6.81;59.83
30935;BME280;51033;42.648;23.292;2022-12-07T06:52:37;93687.47;;;6.57;59.92
30935;BME280;51033;42.648;23.292;2022-12-07T06:55:06;93751.56;;;6.95;59.76
30935;BME280;51033;42.648;23.292;2022-12-07T06:57:31;93756.28;;;6.98;59.61
30935;BME280;51033;42.648;23.292;2022-12-07T06:59:57;93756.75;;;7.00;59.50
30935;BME280;51033;42.648;23.292;2022-12-07T07:02:22;93729.84;;;6.84;59.59
30935;BME280;51033;42.648;23.292;2022-12-07T07:04:48;93746.88;;;6.92;59.65
30935;BME280;51033;42.648;23.292;2022-12-07T07:07:13;93698.34;;;6.55;59.92
30935;BME280;51033;42.648;23.292;2022-12-07T07:09:39;93757.63;;;6.95;59.77
30935;BME280;51033;42.648;23.292;2022-12-07T07:12:05;93755.69;;;7.01;60.17
30935;BME280;51033;42.648;23.292;2022-12-07T07:14:30;93755.59;;;7.06;60.07
30935;BME280;51033;42.648;23.292;2022-12-07T07:16:55;93734.53;;;7.01;59.95
30935;BME280;51033;42.648;23.292;2022-12-07T07:19:21;93752.00;;;7.15;59.72
30935;BME280;51033;42.648;23.292;2022-12-07T07:21:46;93717.31;;;6.90;59.56
30935;BME280;51033;42.648;23.292;2022-12-07T07:24:12;93759.81;;;7.07;59.69
30935;BME280;51033;42.648;23.292;2022-12-07T07:26:37;93745.28;;;6.91;60.06
30935;BME280;51033;42.648;23.292;2022-12-07T07:29:02;93740.78;;;6.77;60.31
30935;BME280;51033;42.648;23.292;2022-12-07T07:31:28;93756.09;;;6.94;60.53
30935;BME280;51033;42.648;23.292;2022-12-07T07:33:54;93759.91;;;7.02;60.37
30935;BME280;51033;42.648;23.292;2022-12-07T07:36:19;93727.47;;;6.82;60.10
30935;BME280;51033;42.648;23.292;2022-12-07T07:38:45;93753.75;;;7.06;60.08
30935;BME280;51033;42.648;23.292;2022-12-07T07:41:10;93734.53;;;7.01;60.12
30935;BME280;51033;42.648;23.292;2022-12-07T07:43:36;93768.25;;;7.09;60.34
30935;BME280;51033;42.648;23.292;2022-12-07T07:46:01;93743.16;;;6.93;60.42
30935;BME280;51033;42.648;23.292;2022-12-07T07:48:27;93760.91;;;7.06;60.38
30935;BME280;51033;42.648;23.292;2022-12-07T07:50:52;93752.56;;;6.99;61.08
30935;BME280;51033;42.648;23.292;2022-12-07T07:53:17;93758.66;;;7.13;61.13
30935;BME280;51033;42.648;23.292;2022-12-07T07:55:55;93687.91;;;6.77;61.11
30935;BME280;51033;42.648;23.292;2022-12-07T07:58:21;93758.28;;;7.33;60.73
30935;BME280;51033;42.648;23.292;2022-12-07T08:00:47;93767.22;;;7.37;60.17
30935;BME280;51033;42.648;23.292;2022-12-07T08:03:12;93767.31;;;7.46;59.87
30935;BME280;51033;42.648;23.292;2022-12-07T08:05:38;93735.28;;;7.34;59.04
30935;BME280;51033;42.648;23.292;2022-12-07T08:08:04;93747.69;;;7.47;58.82
30935;BME280;51033;42.648;23.292;2022-12-07T08:10:30;93743.19;;;7.47;58.68
30935;BME280;51033;42.648;23.292;2022-12-07T08:12:57;93751.22;;;7.56;58.81
30935;BME280;51033;42.648;23.292;2022-12-07T08:15:46;93725.75;;;7.46;58.56
30935;BME280;51033;42.648;23.292;2022-12-07T08:18:13;93713.41;;;7.42;58.33
30935;BME280;51033;42.648;23.292;2022-12-07T08:20:39;93724.19;;;7.45;57.71
30935;BME280;51033;42.648;23.292;2022-12-07T08:23:06;93756.50;;;7.69;58.06
30935;BME280;51033;42.648;23.292;2022-12-07T08:25:32;93717.03;;;7.46;57.89
30935;BME280;51033;42.648;23.292;2022-12-07T08:27:58;93729.16;;;7.60;57.69
30935;BME280;51033;42.648;23.292;2022-12-07T08:30:23;93726.81;;;7.59;57.41
30935;BME280;51033;42.648;23.292;2022-12-07T08:32:49;93750.06;;;7.76;57.50
30935;BME280;51033;42.648;23.292;2022-12-07T08:35:15;93759.47;;;7.82;57.49
30935;BME280;51033;42.648;23.292;2022-12-07T08:37:40;93721.72;;;7.62;57.41
30935;BME280;51033;42.648;23.292;2022-12-07T08:40:08;93760.25;;;7.82;57.36
30935;BME280;51033;42.648;23.292;2022-12-07T08:42:33;93725.91;;;7.63;57.49
30935;BME280;51033;42.648;23.292;2022-12-07T08:45:16;93751.53;;;7.82;57.52
30935;BME280;51033;42.648;23.292;2022-12-07T08:47:46;93733.97;;;7.72;57.15
30935;BME280;51033;42.648;23.292;2022-12-07T08:50:14;93747.41;;;7.76;57.11
30935;BME280;51033;42.648;23.292;2022-12-07T08:52:40;93736.31;;;7.73;57.20
30935;BME280;51033;42.648;23.292;2022-12-07T08:55:07;93726.31;;;7.70;57.37
30935;BME280;51033;42.648;23.292;2022-12-07T08:57:35;93743.28;;;7.83;57.42
30935;BME280;51033;42.648;23.292;2022-12-07T09:00:03;93735.81;;;7.85;57.67
30935;BME280;51033;42.648;23.292;2022-12-07T09:02:30;93708.78;;;7.75;57.19
30935;BME280;51033;42.648;23.292;2022-12-07T09:04:56;93735.53;;;7.87;56.99
30935;BME280;51033;42.648;23.292;2022-12-07T09:07:21;93701.41;;;7.71;56.65
30935;BME280;51033;42.648;23.292;2022-12-07T09:09:47;93712.41;;;7.79;56.97
30935;BME280;51033;42.648;23.292;2022-12-07T09:12:12;93727.28;;;7.88;57.14
30935;BME280;51033;42.648;23.292;2022-12-07T09:14:38;93722.59;;;7.71;57.63
30935;BME280;51033;42.648;23.292;2022-12-07T09:17:08;93692.63;;;7.35;58.58
30935;BME280;51033;42.648;23.292;2022-12-07T09:19:34;93713.31;;;7.47;59.19
30935;BME280;51033;42.648;23.292;2022-12-07T09:21:59;93722.22;;;7.37;59.61
30935;BME280;51033;42.648;23.292;2022-12-07T09:24:25;93690.78;;;7.36;59.49
30935;BME280;51033;42.648;23.292;2022-12-07T09:26:50;93713.38;;;7.55;59.84
30935;BME280;51033;42.648;23.292;2022-12-07T09:29:15;93717.50;;;7.61;60.19
30935;BME280;51033;42.648;23.292;2022-12-07T09:31:41;93717.09;;;7.54;59.70
30935;BME280;51033;42.648;23.292;2022-12-07T09:34:06;93670.28;;;7.41;59.22
30935;BME280;51033;42.648;23.292;2022-12-07T09:36:32;93692.69;;;7.71;59.11
30935;BME280;51033;42.648;23.292;2022-12-07T09:38:58;93685.16;;;7.51;59.61
30935;BME280;51033;42.648;23.292;2022-12-07T09:41:25;93696.03;;;7.49;59.84
30935;BME280;51033;42.648;23.292;2022-12-07T09:43:53;93698.72;;;7.22;60.96
30935;BME280;51033;42.648;23.292;2022-12-07T09:46:21;93674.81;;;7.13;61.54
30935;BME280;51033;42.648;23.292;2022-12-07T09:48:48;93691.75;;;7.26;61.49
30935;BME280;51033;42.648;23.292;2022-12-07T09:51:23;93606.34;;;6.71;61.60
30935;BME280;51033;42.648;23.292;2022-12-07T09:53:50;93610.19;;;6.78;61.55
30935;BME280;51033;42.648;23.292;2022-12-07T09:56:17;93673.03;;;7.36;61.16
30935;BME280;51033;42.648;23.292;2022-12-07T09:58:43;93657.75;;;7.33;61.50
30935;BME280;51033;42.648;23.292;2022-12-07T10:03:40;93609.16;;;7.29;61.03
30935;BME280;51033;42.648;23.292;2022-12-07T10:06:11;93678.09;;;7.73;60.66
30935;BME280;51033;42.648;23.292;2022-12-07T10:08:37;93656.13;;;7.73;60.64
30935;BME280;51033;42.648;23.292;2022-12-07T10:11:03;93672.72;;;8.01;60.47
30935;BME280;51033;42.648;23.292;2022-12-07T10:13:39;93665.53;;;7.79;60.90
30935;BME280;51033;42.648;23.292;2022-12-07T10:16:06;93636.53;;;7.60;61.65
30935;BME280;51033;42.648;23.292;2022-12-07T10:18:53;93655.09;;;7.96;60.64
30935;BME280;51033;42.648;23.292;2022-12-07T10:21:24;93630.84;;;7.53;62.25
30935;BME280;51033;42.648;23.292;2022-12-07T10:24:00;93651.34;;;7.97;61.39
30935;BME280;51033;42.648;23.292;2022-12-07T10:26:50;93649.13;;;7.91;60.57
30935;BME280;51033;42.648;23.292;2022-12-07T10:31:48;93635.28;;;7.44;61.35
30935;BME280;51033;42.648;23.292;2022-12-07T10:34:27;93590.53;;;7.34;61.67
30935;BME280;51033;42.648;23.292;2022-12-07T10:42:20;93628.53;;;7.88;61.16
30935;BME280;51033;42.648;23.292;2022-12-07T10:44:47;93577.69;;;7.63;61.19
30935;BME280;51033;42.648;23.292;2022-12-07T10:47:21;93621.34;;;8.02;60.96
30935;BME280;51033;42.648;23.292;2022-12-07T10:50:13;93610.84;;;8.19;60.99
30935;BME280;51033;42.648;23.292;2022-12-07T11:00:21;93595.06;;;8.14;61.37
30935;BME280;51033;42.648;23.292;2022-12-07T11:11:13;93574.06;;;8.48;58.63
30935;BME280;51033;42.648;23.292;2022-12-07T11:14:12;93595.06;;;8.36;57.55
30935;BME280;51033;42.648;23.292;2022-12-07T11:22:33;93577.41;;;8.71;57.82
30935;BME280;51033;42.648;23.292;2022-12-07T11:28:24;93571.28;;;8.53;57.56
30935;BME280;51033;42.648;23.292;2022-12-07T11:33:47;93559.44;;;8.20;57.99
30935;BME280;51033;42.648;23.292;2022-12-07T11:36:32;93559.25;;;8.17;57.92
30935;BME280;51033;42.648;23.292;2022-12-07T11:39:03;93544.25;;;8.12;57.42
30935;BME280;51033;42.648;23.292;2022-12-07T11:41:35;93549.53;;;8.12;57.05
30935;BME280;51033;42.648;23.292;2022-12-07T11:44:06;93538.31;;;8.06;57.04
30935;BME280;51033;42.648;23.292;2022-12-07T11:46:57;93549.25;;;8.13;57.47
30935;BME280;51033;42.648;23.292;2022-12-07T11:51:59;93525.56;;;8.17;57.74
30935;BME280;51033;42.648;23.292;2022-12-07T11:54:30;93511.47;;;8.30;56.69
30935;BME280;51033;42.648;23.292;2022-12-07T11:57:03;93533.78;;;8.38;56.36
30935;BME280;51033;42.648;23.292;2022-12-07T11:59:38;93536.66;;;8.50;55.75
30935;BME280;51033;42.648;23.292;2022-12-07T12:02:14;93540.94;;;8.77;55.49
30935;BME280;51033;42.648;23.292;2022-12-07T12:05:02;93536.28;;;8.91;55.10
30935;BME280;51033;42.648;23.292;2022-12-07T12:07:31;93511.34;;;8.92;54.65
30935;BME280;51033;42.648;23.292;2022-12-07T12:10:05;93524.69;;;9.18;54.02
30935;BME280;51033;42.648;23.292;2022-12-07T12:20:29;93478.31;;;9.15;53.80
30935;BME280;51033;42.648;23.292;2022-12-07T12:25:52;93510.78;;;9.47;53.99
30935;BME280;51033;42.648;23.292;2022-12-07T12:28:58;93491.91;;;9.31;53.63
30935;BME280;51033;42.648;23.292;2022-12-07T12:33:58;93479.25;;;9.36;53.57
30935;BME280;51033;42.648;23.292;2022-12-07T12:36:28;93497.06;;;9.62;53.34
30935;BME280;51033;42.648;23.292;2022-12-07T12:49:33;93499.16;;;10.11;51.84
30935;BME280;51033;42.648;23.292;2022-12-07T12:52:01;93497.81;;;10.35;51.61
30935;BME280;51033;42.648;23.292;2022-12-07T12:57:32;93478.72;;;10.32;50.39
30935;BME280;51033;42.648;23.292;2022-12-07T13:00:15;93474.41;;;10.37;50.39
30935;BME280;51033;42.648;23.292;2022-12-07T13:02:52;93497.22;;;10.67;49.66
30935;BME280;51033;42.648;23.292;2022-12-07T13:05:22;93500.53;;;10.64;49.48
30935;BME280;51033;42.648;23.292;2022-12-07T13:07:54;93457.94;;;10.35;49.25
30935;BME280;51033;42.648;23.292;2022-12-07T13:13:00;93495.44;;;10.50;50.55
30935;BME280;51033;42.648;23.292;2022-12-07T13:17:59;93499.31;;;10.53;49.78
30935;BME280;51033;42.648;23.292;2022-12-07T13:20:46;93491.78;;;10.63;49.66
30935;BME280;51033;42.648;23.292;2022-12-07T13:23:14;93484.84;;;10.71;49.54
30935;BME280;51033;42.648;23.292;2022-12-07T13:25:49;93487.72;;;10.66;49.56
30935;BME280;51033;42.648;23.292;2022-12-07T13:28:17;93494.50;;;10.84;49.34
30935;BME280;51033;42.648;23.292;2022-12-07T13:33:34;93489.25;;;10.96;49.39
30935;BME280;51033;42.648;23.292;2022-12-07T13:36:00;93488.88;;;11.06;49.82
30935;BME280;51033;42.648;23.292;2022-12-07T13:38:29;93485.22;;;11.11;49.46
30935;BME280;51033;42.648;23.292;2022-12-07T13:43:30;93490.50;;;11.20;49.83
30935;BME280;51033;42.648;23.292;2022-12-07T13:45:56;93469.06;;;11.16;49.74
30935;BME280;51033;42.648;23.292;2022-12-07T13:48:31;93477.44;;;11.06;49.32
30935;BME280;51033;42.648;23.292;2022-12-07T13:51:00;93471.59;;;11.12;50.16
30935;BME280;51033;42.648;23.292;2022-12-07T13:53:30;93467.38;;;11.11;50.10
30935;BME280;51033;42.648;23.292;2022-12-07T13:55:56;93468.47;;;11.10;49.75
30935;BME280;51033;42.648;23.292;2022-12-07T13:58:23;93468.75;;;11.17;49.80
30935;BME280;51033;42.648;23.292;2022-12-07T14:00:49;93474.19;;;11.21;49.92
30935;BME280;51033;42.648;23.292;2022-12-07T14:05:40;93469.03;;;11.25;49.70
30935;BME280;51033;42.648;23.292;2022-12-07T14:13:00;93481.78;;;11.10;50.30
30935;BME280;51033;42.648;23.292;2022-12-07T14:15:27;93479.59;;;11.12;50.45
30935;BME280;51033;42.648;23.292;2022-12-07T14:17:54;93484.97;;;11.04;50.26
30935;BME280;51033;42.648;23.292;2022-12-07T14:20:39;93461.72;;;10.92;50.74
30935;BME280;51033;42.648;23.292;2022-12-07T14:23:06;93481.66;;;11.07;50.38
30935;BME280;51033;42.648;23.292;2022-12-07T14:25:49;93484.00;;;11.08;50.42
30935;BME280;51033;42.648;23.292;2022-12-07T14:28:31;93488.78;;;10.94;50.40
30935;BME280;51033;42.648;23.292;2022-12-07T14:30:57;93483.47;;;10.94;50.47
30935;BME280;51033;42.648;23.292;2022-12-07T14:33:23;93488.16;;;10.68;50.76
30935;BME280;51033;42.648;23.292;2022-12-07T14:35:49;93488.44;;;10.46;51.27
30935;BME280;51033;42.648;23.292;2022-12-07T14:38:14;93491.88;;;10.38;51.60
30935;BME280;51033;42.648;23.292;2022-12-07T14:40:39;93486.88;;;10.45;51.42
30935;BME280;51033;42.648;23.292;2022-12-07T14:43:08;93490.91;;;10.51;50.97
30935;BME280;51033;42.648;23.292;2022-12-07T14:45:34;93485.94;;;10.41;50.51
30935;BME280;51033;42.648;23.292;2022-12-07T14:47:59;93489.41;;;10.24;50.98
30935;BME280;51033;42.648;23.292;2022-12-07T14:50:24;93489.31;;;10.12;51.43
30935;BME280;51033;42.648;23.292;2022-12-07T14:52:59;93490.06;;;10.12;51.49
30935;BME280;51033;42.648;23.292;2022-12-07T14:55:30;93493.66;;;10.16;51.36
30935;BME280;51033;42.648;23.292;2022-12-07T14:57:56;93488.19;;;10.21;51.38
30935;BME280;51033;42.648;23.292;2022-12-07T15:00:22;93486.75;;;10.24;51.27
30935;BME280;51033;42.648;23.292;2022-12-07T15:02:48;93490.34;;;10.19;51.17
30935;BME280;51033;42.648;23.292;2022-12-07T15:05:14;93502.72;;;10.15;51.28